sensor_id;sensor_type;location;lat;lon;timestamp;P1;durP1;ratioP1;P2;durP2;ratioP2
82560;SDS011;72228;51.208;10.468;2024-01-30T00:00:11;15.90;;;7.45;;
82560;SDS011;72228;51.208;10.468;2024-01-30T00:02:37;17.13;;;7.70;;
82560;SDS011;72228;51.208;10.468;2024-01-30T00:05:03;12.45;;;6.95;;
82560;SDS011;72228;51.208;10.468;2024-01-30T00:07:30;15.18;;;7.72;;
82560;SDS011;72228;51.208;10.468;2024-01-30T00:09:55;10.63;;;6.90;;
82560;SDS011;72228;51.208;10.468;2024-01-30T00:12:21;15.60;;;8.05;;
82560;SDS011;72228;51.208;10.468;2024-01-30T00:14:47;12.38;;;7.05;;
82560;SDS011;72228;51.208;10.468;2024-01-30T00:17:14;16.00;;;7.97;;
82560;SDS011;72228;51.208;10.468;2024-01-30T00:19:40;11.55;;;5.38;;
82560;SDS011;72228;51.208;10.468;2024-01-30T00:22:06;14.15;;;6.47;;
82560;SDS011;72228;51.208;10.468;2024-01-30T00:24:38;11.43;;;6.22;;
82560;SDS011;72228;51.208;10.468;2024-01-30T00:27:04;14.30;;;6.60;;
82560;SDS011;72228;51.208;10.468;2024-01-30T00:29:30;11.35;;;6.35;;
82560;SDS011;72228;51.208;10.468;2024-01-30T00:31:59;9.93;;;5.75;;
82560;SDS011;72228;51.208;10.468;2024-01-30T00:34:44;13.55;;;6.78;;
82560;SDS011;72228;51.208;10.468;2024-01-30T00:37:11;10.98;;;7.10;;
82560;SDS011;72228;51.208;10.468;2024-01-30T00:39:39;12.40;;;5.90;;
82560;SDS011;72228;51.208;10.468;2024-01-30T00:42:05;11.77;;;6.35;;
82560;SDS011;72228;51.208;10.468;2024-01-30T00:44:35;16.27;;;6.13;;
82560;SDS011;72228;51.208;10.468;2024-01-30T00:47:04;10.48;;;6.03;;
82560;SDS011;72228;51.208;10.468;2024-01-30T00:49:31;8.55;;;5.43;;
82560;SDS011;72228;51.208;10.468;2024-01-30T00:51:57;7.55;;;5.40;;
82560;SDS011;72228;51.208;10.468;2024-01-30T00:54:26;11.20;;;5.45;;
82560;SDS011;72228;51.208;10.468;2024-01-30T00:56:52;10.48;;;6.60;;
82560;SDS011;72228;51.208;10.468;2024-01-30T00:59:18;11.40;;;6.35;;
82560;SDS011;72228;51.208;10.468;2024-01-30T01:01:45;13.43;;;7.18;;
82560;SDS011;72228;51.208;10.468;2024-01-30T01:04:11;9.65;;;5.78;;
82560;SDS011;72228;51.208;10.468;2024-01-30T01:06:37;14.95;;;6.95;;
82560;SDS011;72228;51.208;10.468;2024-01-30T01:09:04;10.23;;;6.55;;
82560;SDS011;72228;51.208;10.468;2024-01-30T01:11:32;13.13;;;6.80;;
82560;SDS011;72228;51.208;10.468;2024-01-30T01:16:25;12.50;;;6.28;;
82560;SDS011;72228;51.208;10.468;2024-01-30T01:18:51;9.93;;;5.50;;
82560;SDS011;72228;51.208;10.468;2024-01-30T01:21:21;10.05;;;5.30;;
82560;SDS011;72228;51.208;10.468;2024-01-30T01:23:47;14.52;;;7.13;;
82560;SDS011;72228;51.208;10.468;2024-01-30T01:26:13;9.38;;;5.38;;
82560;SDS011;72228;51.208;10.468;2024-01-30T01:28:40;10.40;;;6.43;;
82560;SDS011;72228;51.208;10.468;2024-01-30T01:31:07;11.27;;;5.80;;
82560;SDS011;72228;51.208;10.468;2024-01-30T01:36:15;11.40;;;5.80;;
82560;SDS011;72228;51.208;10.468;2024-01-30T01:38:45;16.40;;;7.13;;
82560;SDS011;72228;51.208;10.468;2024-01-30T01:41:13;16.80;;;6.43;;
82560;SDS011;72228;51.208;10.468;2024-01-30T01:46:08;13.75;;;5.88;;
82560;SDS011;72228;51.208;10.468;2024-01-30T01:48:35;13.82;;;6.20;;
82560;SDS011;72228;51.208;10.468;2024-01-30T01:51:02;10.57;;;6.38;;
82560;SDS011;72228;51.208;10.468;2024-01-30T01:53:29;8.25;;;6.20;;
82560;SDS011;72228;51.208;10.468;2024-01-30T01:55:55;11.10;;;6.85;;
82560;SDS011;72228;51.208;10.468;2024-01-30T01:58:32;11.93;;;6.22;;
82560;SDS011;72228;51.208;10.468;2024-01-30T02:00:58;10.95;;;4.85;;
82560;SDS011;72228;51.208;10.468;2024-01-30T02:03:28;8.00;;;5.10;;
82560;SDS011;72228;51.208;10.468;2024-01-30T02:05:54;8.13;;;5.72;;
82560;SDS011;72228;51.208;10.468;2024-01-30T02:08:22;12.25;;;6.63;;
82560;SDS011;72228;51.208;10.468;2024-01-30T02:10:50;10.40;;;6.38;;
82560;SDS011;72228;51.208;10.468;2024-01-30T02:13:35;9.02;;;4.90;;
82560;SDS011;72228;51.208;10.468;2024-01-30T02:16:02;11.20;;;6.18;;
82560;SDS011;72228;51.208;10.468;2024-01-30T02:18:29;9.23;;;5.72;;
82560;SDS011;72228;51.208;10.468;2024-01-30T02:21:15;14.85;;;4.57;;
82560;SDS011;72228;51.208;10.468;2024-01-30T02:23:43;11.85;;;5.25;;
82560;SDS011;72228;51.208;10.468;2024-01-30T02:26:12;11.23;;;5.38;;
82560;SDS011;72228;51.208;10.468;2024-01-30T02:28:38;13.02;;;5.57;;
82560;SDS011;72228;51.208;10.468;2024-01-30T02:31:05;10.40;;;4.07;;
82560;SDS011;72228;51.208;10.468;2024-01-30T02:33:31;9.07;;;5.38;;
82560;SDS011;72228;51.208;10.468;2024-01-30T02:35:57;10.48;;;4.93;;
82560;SDS011;72228;51.208;10.468;2024-01-30T02:38:23;8.38;;;4.82;;
82560;SDS011;72228;51.208;10.468;2024-01-30T02:40:49;18.60;;;6.78;;
82560;SDS011;72228;51.208;10.468;2024-01-30T02:43:15;6.53;;;4.72;;
82560;SDS011;72228;51.208;10.468;2024-01-30T02:45:42;9.35;;;5.57;;
82560;SDS011;72228;51.208;10.468;2024-01-30T02:48:08;7.93;;;5.53;;
82560;SDS011;72228;51.208;10.468;2024-01-30T02:50:34;10.73;;;5.57;;
82560;SDS011;72228;51.208;10.468;2024-01-30T02:52:59;10.85;;;5.53;;
82560;SDS011;72228;51.208;10.468;2024-01-30T02:55:25;8.30;;;5.38;;
82560;SDS011;72228;51.208;10.468;2024-01-30T02:57:51;11.05;;;5.75;;
82560;SDS011;72228;51.208;10.468;2024-01-30T03:00:17;10.68;;;6.15;;
82560;SDS011;72228;51.208;10.468;2024-01-30T03:02:45;13.23;;;5.80;;
82560;SDS011;72228;51.208;10.468;2024-01-30T03:05:11;11.02;;;5.97;;
82560;SDS011;72228;51.208;10.468;2024-01-30T03:07:37;9.57;;;5.43;;
82560;SDS011;72228;51.208;10.468;2024-01-30T03:10:04;12.93;;;5.75;;
82560;SDS011;72228;51.208;10.468;2024-01-30T03:12:31;15.45;;;5.75;;
82560;SDS011;72228;51.208;10.468;2024-01-30T03:14:57;13.15;;;5.43;;
82560;SDS011;72228;51.208;10.468;2024-01-30T03:17:23;8.27;;;5.40;;
82560;SDS011;72228;51.208;10.468;2024-01-30T03:19:49;7.63;;;4.68;;
82560;SDS011;72228;51.208;10.468;2024-01-30T03:22:15;7.03;;;4.45;;
82560;SDS011;72228;51.208;10.468;2024-01-30T03:24:41;9.57;;;5.13;;
82560;SDS011;72228;51.208;10.468;2024-01-30T03:27:08;9.82;;;5.43;;
82560;SDS011;72228;51.208;10.468;2024-01-30T03:29:34;10.68;;;6.45;;
82560;SDS011;72228;51.208;10.468;2024-01-30T03:32:00;13.30;;;5.47;;
82560;SDS011;72228;51.208;10.468;2024-01-30T03:34:26;10.73;;;5.22;;
82560;SDS011;72228;51.208;10.468;2024-01-30T03:36:51;9.10;;;5.15;;
82560;SDS011;72228;51.208;10.468;2024-01-30T03:39:17;11.57;;;4.70;;
82560;SDS011;72228;51.208;10.468;2024-01-30T03:41:43;9.75;;;5.45;;
82560;SDS011;72228;51.208;10.468;2024-01-30T03:44:09;10.55;;;6.10;;
82560;SDS011;72228;51.208;10.468;2024-01-30T03:46:35;9.63;;;5.13;;
82560;SDS011;72228;51.208;10.468;2024-01-30T03:49:02;7.35;;;4.80;;
82560;SDS011;72228;51.208;10.468;2024-01-30T03:51:27;10.75;;;4.25;;
82560;SDS011;72228;51.208;10.468;2024-01-30T03:53:53;13.27;;;4.97;;
82560;SDS011;72228;51.208;10.468;2024-01-30T03:56:19;12.15;;;5.13;;
82560;SDS011;72228;51.208;10.468;2024-01-30T03:58:45;8.93;;;4.95;;
82560;SDS011;72228;51.208;10.468;2024-01-30T04:01:14;8.95;;;4.38;;
82560;SDS011;72228;51.208;10.468;2024-01-30T04:03:40;8.50;;;4.55;;
82560;SDS011;72228;51.208;10.468;2024-01-30T04:06:07;11.77;;;5.13;;
82560;SDS011;72228;51.208;10.468;2024-01-30T04:08:33;9.27;;;5.38;;
82560;SDS011;72228;51.208;10.468;2024-01-30T04:10:59;8.27;;;4.82;;
82560;SDS011;72228;51.208;10.468;2024-01-30T04:13:29;9.35;;;4.88;;
82560;SDS011;72228;51.208;10.468;2024-01-30T04:15:55;10.48;;;4.47;;
82560;SDS011;72228;51.208;10.468;2024-01-30T04:18:21;8.02;;;4.47;;
82560;SDS011;72228;51.208;10.468;2024-01-30T04:20:47;8.38;;;4.18;;
82560;SDS011;72228;51.208;10.468;2024-01-30T04:23:13;7.57;;;4.50;;
82560;SDS011;72228;51.208;10.468;2024-01-30T04:25:39;7.75;;;4.63;;
82560;SDS011;72228;51.208;10.468;2024-01-30T04:28:04;8.57;;;4.45;;
82560;SDS011;72228;51.208;10.468;2024-01-30T04:30:31;7.22;;;4.55;;
82560;SDS011;72228;51.208;10.468;2024-01-30T04:32:56;16.83;;;4.93;;
82560;SDS011;72228;51.208;10.468;2024-01-30T04:35:22;13.38;;;5.53;;
82560;SDS011;72228;51.208;10.468;2024-01-30T04:37:51;12.98;;;5.28;;
82560;SDS011;72228;51.208;10.468;2024-01-30T04:40:18;7.53;;;4.82;;
82560;SDS011;72228;51.208;10.468;2024-01-30T04:42:44;8.77;;;4.75;;
82560;SDS011;72228;51.208;10.468;2024-01-30T04:45:10;11.07;;;5.32;;
82560;SDS011;72228;51.208;10.468;2024-01-30T04:47:36;9.95;;;5.38;;
82560;SDS011;72228;51.208;10.468;2024-01-30T04:50:02;6.85;;;4.25;;
82560;SDS011;72228;51.208;10.468;2024-01-30T04:52:30;9.02;;;5.13;;
82560;SDS011;72228;51.208;10.468;2024-01-30T04:54:56;8.45;;;4.38;;
82560;SDS011;72228;51.208;10.468;2024-01-30T04:57:21;17.17;;;4.78;;
82560;SDS011;72228;51.208;10.468;2024-01-30T04:59:47;10.18;;;5.05;;
82560;SDS011;72228;51.208;10.468;2024-01-30T05:02:13;8.55;;;5.10;;
82560;SDS011;72228;51.208;10.468;2024-01-30T05:04:40;6.80;;;4.75;;
82560;SDS011;72228;51.208;10.468;2024-01-30T05:07:06;9.90;;;4.38;;
82560;SDS011;72228;51.208;10.468;2024-01-30T05:09:32;13.73;;;5.60;;
82560;SDS011;72228;51.208;10.468;2024-01-30T05:11:58;8.10;;;4.93;;
82560;SDS011;72228;51.208;10.468;2024-01-30T05:14:24;9.73;;;4.60;;
82560;SDS011;72228;51.208;10.468;2024-01-30T05:16:50;8.40;;;4.85;;
82560;SDS011;72228;51.208;10.468;2024-01-30T05:19:16;6.75;;;4.15;;
82560;SDS011;72228;51.208;10.468;2024-01-30T05:21:42;8.57;;;4.55;;
82560;SDS011;72228;51.208;10.468;2024-01-30T05:24:08;14.15;;;5.20;;
82560;SDS011;72228;51.208;10.468;2024-01-30T05:26:35;12.75;;;5.25;;
82560;SDS011;72228;51.208;10.468;2024-01-30T05:29:02;8.88;;;4.97;;
82560;SDS011;72228;51.208;10.468;2024-01-30T05:31:28;9.60;;;5.43;;
82560;SDS011;72228;51.208;10.468;2024-01-30T05:33:54;16.33;;;6.22;;
82560;SDS011;72228;51.208;10.468;2024-01-30T05:36:20;10.43;;;5.32;;
82560;SDS011;72228;51.208;10.468;2024-01-30T05:38:47;9.70;;;4.70;;
82560;SDS011;72228;51.208;10.468;2024-01-30T05:41:13;11.85;;;4.78;;
82560;SDS011;72228;51.208;10.468;2024-01-30T05:43:39;8.63;;;5.10;;
82560;SDS011;72228;51.208;10.468;2024-01-30T05:46:05;8.07;;;4.57;;
82560;SDS011;72228;51.208;10.468;2024-01-30T05:48:31;8.55;;;4.68;;
82560;SDS011;72228;51.208;10.468;2024-01-30T05:50:58;11.13;;;4.97;;
82560;SDS011;72228;51.208;10.468;2024-01-30T05:53:25;10.43;;;5.15;;
82560;SDS011;72228;51.208;10.468;2024-01-30T05:55:51;10.27;;;5.20;;
82560;SDS011;72228;51.208;10.468;2024-01-30T05:58:17;7.95;;;5.72;;
82560;SDS011;72228;51.208;10.468;2024-01-30T06:00:42;11.98;;;5.38;;
82560;SDS011;72228;51.208;10.468;2024-01-30T06:03:08;11.45;;;6.30;;
82560;SDS011;72228;51.208;10.468;2024-01-30T06:05:34;9.32;;;5.20;;
82560;SDS011;72228;51.208;10.468;2024-01-30T06:08:00;9.95;;;5.00;;
82560;SDS011;72228;51.208;10.468;2024-01-30T06:10:27;9.75;;;4.70;;
82560;SDS011;72228;51.208;10.468;2024-01-30T06:12:53;10.80;;;5.32;;
82560;SDS011;72228;51.208;10.468;2024-01-30T06:15:19;9.88;;;4.78;;
82560;SDS011;72228;51.208;10.468;2024-01-30T06:18:10;13.82;;;5.57;;
82560;SDS011;72228;51.208;10.468;2024-01-30T06:20:36;11.77;;;5.57;;
82560;SDS011;72228;51.208;10.468;2024-01-30T06:23:02;9.55;;;5.80;;
82560;SDS011;72228;51.208;10.468;2024-01-30T06:25:28;14.85;;;5.63;;
82560;SDS011;72228;51.208;10.468;2024-01-30T06:27:54;13.88;;;6.00;;
82560;SDS011;72228;51.208;10.468;2024-01-30T06:30:20;23.35;;;10.25;;
82560;SDS011;72228;51.208;10.468;2024-01-30T06:32:46;17.65;;;8.40;;
82560;SDS011;72228;51.208;10.468;2024-01-30T06:35:12;19.75;;;8.48;;
82560;SDS011;72228;51.208;10.468;2024-01-30T06:37:38;15.73;;;7.80;;
82560;SDS011;72228;51.208;10.468;2024-01-30T06:40:04;17.65;;;9.02;;
82560;SDS011;72228;51.208;10.468;2024-01-30T06:42:30;22.05;;;9.50;;
82560;SDS011;72228;51.208;10.468;2024-01-30T06:44:56;21.50;;;10.13;;
82560;SDS011;72228;51.208;10.468;2024-01-30T06:47:22;13.25;;;7.88;;
82560;SDS011;72228;51.208;10.468;2024-01-30T06:49:48;16.17;;;8.27;;
82560;SDS011;72228;51.208;10.468;2024-01-30T06:52:14;17.02;;;7.93;;
82560;SDS011;72228;51.208;10.468;2024-01-30T06:54:40;18.48;;;9.00;;
82560;SDS011;72228;51.208;10.468;2024-01-30T06:57:06;16.55;;;7.07;;
82560;SDS011;72228;51.208;10.468;2024-01-30T06:59:37;14.13;;;6.47;;
82560;SDS011;72228;51.208;10.468;2024-01-30T07:02:12;10.60;;;6.95;;
82560;SDS011;72228;51.208;10.468;2024-01-30T07:04:38;10.15;;;5.85;;
82560;SDS011;72228;51.208;10.468;2024-01-30T07:07:04;13.55;;;5.90;;
82560;SDS011;72228;51.208;10.468;2024-01-30T07:09:31;14.45;;;6.38;;
82560;SDS011;72228;51.208;10.468;2024-01-30T07:11:57;13.90;;;6.05;;
82560;SDS011;72228;51.208;10.468;2024-01-30T07:14:25;10.98;;;5.88;;
82560;SDS011;72228;51.208;10.468;2024-01-30T07:16:51;8.32;;;5.57;;
82560;SDS011;72228;51.208;10.468;2024-01-30T07:19:17;17.98;;;5.80;;
82560;SDS011;72228;51.208;10.468;2024-01-30T07:21:43;14.13;;;6.10;;
82560;SDS011;72228;51.208;10.468;2024-01-30T07:24:09;16.85;;;7.78;;
82560;SDS011;72228;51.208;10.468;2024-01-30T07:26:35;9.98;;;6.22;;
82560;SDS011;72228;51.208;10.468;2024-01-30T07:29:01;16.38;;;7.05;;
82560;SDS011;72228;51.208;10.468;2024-01-30T07:31:27;9.90;;;6.05;;
82560;SDS011;72228;51.208;10.468;2024-01-30T07:33:53;12.85;;;4.97;;
82560;SDS011;72228;51.208;10.468;2024-01-30T07:36:20;9.80;;;5.95;;
82560;SDS011;72228;51.208;10.468;2024-01-30T07:38:46;15.70;;;5.97;;
82560;SDS011;72228;51.208;10.468;2024-01-30T07:41:12;11.68;;;6.57;;
82560;SDS011;72228;51.208;10.468;2024-01-30T07:43:38;10.73;;;5.95;;
82560;SDS011;72228;51.208;10.468;2024-01-30T07:46:04;9.73;;;6.18;;
82560;SDS011;72228;51.208;10.468;2024-01-30T07:48:34;17.05;;;7.40;;
82560;SDS011;72228;51.208;10.468;2024-01-30T07:51:00;17.83;;;8.50;;
82560;SDS011;72228;51.208;10.468;2024-01-30T07:53:28;22.30;;;8.90;;
82560;SDS011;72228;51.208;10.468;2024-01-30T07:55:54;17.95;;;8.30;;
82560;SDS011;72228;51.208;10.468;2024-01-30T07:58:20;15.30;;;8.38;;
82560;SDS011;72228;51.208;10.468;2024-01-30T08:00:45;16.05;;;7.22;;
82560;SDS011;72228;51.208;10.468;2024-01-30T08:03:11;16.98;;;8.32;;
82560;SDS011;72228;51.208;10.468;2024-01-30T08:05:38;13.70;;;7.60;;
82560;SDS011;72228;51.208;10.468;2024-01-30T08:08:04;23.30;;;9.15;;
82560;SDS011;72228;51.208;10.468;2024-01-30T08:10:30;15.52;;;9.30;;
82560;SDS011;72228;51.208;10.468;2024-01-30T08:12:56;15.35;;;7.53;;
82560;SDS011;72228;51.208;10.468;2024-01-30T08:15:22;17.50;;;7.70;;
82560;SDS011;72228;51.208;10.468;2024-01-30T08:17:48;19.15;;;8.43;;
82560;SDS011;72228;51.208;10.468;2024-01-30T08:20:14;14.48;;;6.95;;
82560;SDS011;72228;51.208;10.468;2024-01-30T08:22:40;13.05;;;6.75;;
82560;SDS011;72228;51.208;10.468;2024-01-30T08:25:06;13.23;;;8.95;;
82560;SDS011;72228;51.208;10.468;2024-01-30T08:27:33;18.20;;;8.05;;
82560;SDS011;72228;51.208;10.468;2024-01-30T08:30:01;16.15;;;7.88;;
82560;SDS011;72228;51.208;10.468;2024-01-30T08:32:29;17.52;;;7.70;;
82560;SDS011;72228;51.208;10.468;2024-01-30T08:34:54;19.38;;;11.82;;
82560;SDS011;72228;51.208;10.468;2024-01-30T08:37:20;15.05;;;7.95;;
82560;SDS011;72228;51.208;10.468;2024-01-30T08:39:46;14.27;;;8.32;;
82560;SDS011;72228;51.208;10.468;2024-01-30T08:42:12;14.05;;;6.53;;
82560;SDS011;72228;51.208;10.468;2024-01-30T08:44:38;14.80;;;7.57;;
82560;SDS011;72228;51.208;10.468;2024-01-30T08:47:04;16.42;;;7.00;;
82560;SDS011;72228;51.208;10.468;2024-01-30T08:49:30;15.82;;;8.55;;
82560;SDS011;72228;51.208;10.468;2024-01-30T08:51:56;18.50;;;7.90;;
82560;SDS011;72228;51.208;10.468;2024-01-30T08:54:23;14.00;;;7.95;;
82560;SDS011;72228;51.208;10.468;2024-01-30T08:56:49;14.55;;;7.20;;
82560;SDS011;72228;51.208;10.468;2024-01-30T08:59:15;9.95;;;6.72;;
82560;SDS011;72228;51.208;10.468;2024-01-30T09:01:41;13.73;;;6.85;;
82560;SDS011;72228;51.208;10.468;2024-01-30T09:04:07;11.27;;;7.10;;
82560;SDS011;72228;51.208;10.468;2024-01-30T09:06:33;14.02;;;7.50;;
82560;SDS011;72228;51.208;10.468;2024-01-30T09:08:59;12.05;;;7.43;;
82560;SDS011;72228;51.208;10.468;2024-01-30T09:11:24;11.73;;;6.75;;
82560;SDS011;72228;51.208;10.468;2024-01-30T09:13:50;14.30;;;7.25;;
82560;SDS011;72228;51.208;10.468;2024-01-30T09:16:16;14.35;;;7.47;;
82560;SDS011;72228;51.208;10.468;2024-01-30T09:18:42;11.75;;;6.63;;
82560;SDS011;72228;51.208;10.468;2024-01-30T09:21:09;20.25;;;7.22;;
82560;SDS011;72228;51.208;10.468;2024-01-30T09:23:35;9.27;;;6.90;;
82560;SDS011;72228;51.208;10.468;2024-01-30T09:26:01;16.63;;;8.65;;
82560;SDS011;72228;51.208;10.468;2024-01-30T09:28:26;14.90;;;8.15;;
82560;SDS011;72228;51.208;10.468;2024-01-30T09:30:52;11.00;;;7.68;;
82560;SDS011;72228;51.208;10.468;2024-01-30T09:33:18;13.63;;;7.32;;
82560;SDS011;72228;51.208;10.468;2024-01-30T09:35:44;12.00;;;7.32;;
82560;SDS011;72228;51.208;10.468;2024-01-30T09:38:10;16.95;;;8.00;;
82560;SDS011;72228;51.208;10.468;2024-01-30T09:40:36;12.95;;;7.15;;
82560;SDS011;72228;51.208;10.468;2024-01-30T09:43:02;19.98;;;8.18;;
82560;SDS011;72228;51.208;10.468;2024-01-30T09:45:28;12.80;;;7.47;;
82560;SDS011;72228;51.208;10.468;2024-01-30T09:47:55;17.05;;;7.65;;
82560;SDS011;72228;51.208;10.468;2024-01-30T09:50:21;13.07;;;6.50;;
82560;SDS011;72228;51.208;10.468;2024-01-30T09:52:47;12.30;;;6.97;;
82560;SDS011;72228;51.208;10.468;2024-01-30T09:55:13;14.38;;;5.65;;
82560;SDS011;72228;51.208;10.468;2024-01-30T09:57:39;10.10;;;6.80;;
82560;SDS011;72228;51.208;10.468;2024-01-30T10:00:05;15.25;;;7.45;;
82560;SDS011;72228;51.208;10.468;2024-01-30T10:02:39;13.63;;;7.15;;
82560;SDS011;72228;51.208;10.468;2024-01-30T10:05:05;12.00;;;7.78;;
82560;SDS011;72228;51.208;10.468;2024-01-30T10:07:31;13.95;;;7.55;;
82560;SDS011;72228;51.208;10.468;2024-01-30T10:09:57;15.13;;;7.32;;
82560;SDS011;72228;51.208;10.468;2024-01-30T10:12:25;14.57;;;7.60;;
82560;SDS011;72228;51.208;10.468;2024-01-30T10:14:51;14.23;;;7.13;;
82560;SDS011;72228;51.208;10.468;2024-01-30T10:17:18;16.40;;;6.85;;
82560;SDS011;72228;51.208;10.468;2024-01-30T10:19:46;13.25;;;6.90;;
82560;SDS011;72228;51.208;10.468;2024-01-30T10:22:12;9.63;;;6.10;;
82560;SDS011;72228;51.208;10.468;2024-01-30T10:24:39;9.25;;;4.95;;
82560;SDS011;72228;51.208;10.468;2024-01-30T10:27:05;9.68;;;4.82;;
82560;SDS011;72228;51.208;10.468;2024-01-30T10:29:32;7.18;;;4.50;;
82560;SDS011;72228;51.208;10.468;2024-01-30T10:32:01;9.35;;;5.05;;
82560;SDS011;72228;51.208;10.468;2024-01-30T10:34:29;7.50;;;4.20;;
82560;SDS011;72228;51.208;10.468;2024-01-30T10:36:59;7.90;;;4.15;;
82560;SDS011;72228;51.208;10.468;2024-01-30T10:39:44;10.25;;;3.80;;
82560;SDS011;72228;51.208;10.468;2024-01-30T10:42:14;11.10;;;4.63;;
82560;SDS011;72228;51.208;10.468;2024-01-30T10:47:27;6.53;;;4.28;;
82560;SDS011;72228;51.208;10.468;2024-01-30T10:49:54;10.25;;;4.50;;
82560;SDS011;72228;51.208;10.468;2024-01-30T10:52:22;8.55;;;4.80;;
82560;SDS011;72228;51.208;10.468;2024-01-30T10:54:53;10.95;;;4.68;;
82560;SDS011;72228;51.208;10.468;2024-01-30T10:57:21;8.73;;;4.32;;
82560;SDS011;72228;51.208;10.468;2024-01-30T10:59:49;6.03;;;4.68;;
82560;SDS011;72228;51.208;10.468;2024-01-30T11:02:18;10.75;;;4.40;;
82560;SDS011;72228;51.208;10.468;2024-01-30T11:04:45;11.80;;;5.90;;
82560;SDS011;72228;51.208;10.468;2024-01-30T11:07:15;7.85;;;4.30;;
82560;SDS011;72228;51.208;10.468;2024-01-30T11:09:52;9.13;;;4.60;;
82560;SDS011;72228;51.208;10.468;2024-01-30T11:12:26;9.68;;;3.90;;
82560;SDS011;72228;51.208;10.468;2024-01-30T11:15:03;8.55;;;4.45;;
82560;SDS011;72228;51.208;10.468;2024-01-30T11:20:21;7.03;;;4.47;;
82560;SDS011;72228;51.208;10.468;2024-01-30T11:22:49;6.82;;;4.00;;
82560;SDS011;72228;51.208;10.468;2024-01-30T11:25:17;7.07;;;4.07;;
82560;SDS011;72228;51.208;10.468;2024-01-30T11:27:46;7.28;;;4.00;;
82560;SDS011;72228;51.208;10.468;2024-01-30T11:32:58;5.72;;;3.88;;
82560;SDS011;72228;51.208;10.468;2024-01-30T11:35:27;8.50;;;4.22;;
82560;SDS011;72228;51.208;10.468;2024-01-30T11:37:53;7.78;;;4.13;;
82560;SDS011;72228;51.208;10.468;2024-01-30T11:40:19;7.20;;;3.72;;
82560;SDS011;72228;51.208;10.468;2024-01-30T11:42:46;8.43;;;4.75;;
82560;SDS011;72228;51.208;10.468;2024-01-30T11:45:14;8.10;;;4.07;;
82560;SDS011;72228;51.208;10.468;2024-01-30T11:47:40;13.30;;;5.20;;
82560;SDS011;72228;51.208;10.468;2024-01-30T11:50:06;13.50;;;6.60;;
82560;SDS011;72228;51.208;10.468;2024-01-30T11:52:33;13.20;;;5.22;;
82560;SDS011;72228;51.208;10.468;2024-01-30T11:55:00;7.85;;;4.28;;
82560;SDS011;72228;51.208;10.468;2024-01-30T11:57:29;11.57;;;5.28;;
82560;SDS011;72228;51.208;10.468;2024-01-30T11:59:55;10.25;;;4.15;;
82560;SDS011;72228;51.208;10.468;2024-01-30T12:02:21;12.60;;;4.30;;
82560;SDS011;72228;51.208;10.468;2024-01-30T12:04:47;10.32;;;4.70;;
82560;SDS011;72228;51.208;10.468;2024-01-30T12:07:13;13.75;;;6.35;;
82560;SDS011;72228;51.208;10.468;2024-01-30T12:09:41;9.93;;;4.82;;
82560;SDS011;72228;51.208;10.468;2024-01-30T12:12:07;8.43;;;5.05;;
82560;SDS011;72228;51.208;10.468;2024-01-30T12:14:38;9.60;;;4.53;;
82560;SDS011;72228;51.208;10.468;2024-01-30T12:19:35;8.90;;;4.82;;
82560;SDS011;72228;51.208;10.468;2024-01-30T12:22:01;6.53;;;4.25;;
82560;SDS011;72228;51.208;10.468;2024-01-30T12:24:27;8.38;;;4.50;;
82560;SDS011;72228;51.208;10.468;2024-01-30T12:26:56;8.18;;;4.32;;
82560;SDS011;72228;51.208;10.468;2024-01-30T12:29:25;10.80;;;4.40;;
82560;SDS011;72228;51.208;10.468;2024-01-30T12:31:54;6.35;;;4.20;;
82560;SDS011;72228;51.208;10.468;2024-01-30T12:34:20;8.95;;;5.28;;
82560;SDS011;72228;51.208;10.468;2024-01-30T12:36:48;11.20;;;4.95;;
82560;SDS011;72228;51.208;10.468;2024-01-30T12:39:17;9.15;;;4.80;;
82560;SDS011;72228;51.208;10.468;2024-01-30T12:41:43;5.90;;;4.22;;
82560;SDS011;72228;51.208;10.468;2024-01-30T12:44:09;9.70;;;4.18;;
82560;SDS011;72228;51.208;10.468;2024-01-30T12:46:35;7.63;;;4.68;;
82560;SDS011;72228;51.208;10.468;2024-01-30T12:49:01;10.77;;;4.53;;
82560;SDS011;72228;51.208;10.468;2024-01-30T12:51:27;9.55;;;5.00;;
82560;SDS011;72228;51.208;10.468;2024-01-30T12:53:53;12.32;;;4.38;;
82560;SDS011;72228;51.208;10.468;2024-01-30T12:56:19;9.07;;;4.78;;
82560;SDS011;72228;51.208;10.468;2024-01-30T12:58:45;8.90;;;4.32;;
82560;SDS011;72228;51.208;10.468;2024-01-30T13:01:11;13.88;;;4.97;;
82560;SDS011;72228;51.208;10.468;2024-01-30T13:03:37;9.98;;;4.70;;
82560;SDS011;72228;51.208;10.468;2024-01-30T13:06:04;6.95;;;4.53;;
82560;SDS011;72228;51.208;10.468;2024-01-30T13:08:30;9.18;;;4.97;;
82560;SDS011;72228;51.208;10.468;2024-01-30T13:10:55;9.23;;;4.43;;
82560;SDS011;72228;51.208;10.468;2024-01-30T13:13:21;8.20;;;4.15;;
82560;SDS011;72228;51.208;10.468;2024-01-30T13:15:48;9.32;;;4.95;;
82560;SDS011;72228;51.208;10.468;2024-01-30T13:18:14;8.77;;;4.57;;
82560;SDS011;72228;51.208;10.468;2024-01-30T13:20:40;8.25;;;4.25;;
82560;SDS011;72228;51.208;10.468;2024-01-30T13:23:06;9.80;;;4.18;;
82560;SDS011;72228;51.208;10.468;2024-01-30T13:25:31;7.05;;;4.75;;
82560;SDS011;72228;51.208;10.468;2024-01-30T13:27:57;11.23;;;4.60;;
82560;SDS011;72228;51.208;10.468;2024-01-30T13:30:23;8.32;;;4.60;;
82560;SDS011;72228;51.208;10.468;2024-01-30T13:32:49;11.43;;;5.82;;
82560;SDS011;72228;51.208;10.468;2024-01-30T13:35:15;8.63;;;4.70;;
82560;SDS011;72228;51.208;10.468;2024-01-30T13:37:41;9.73;;;4.43;;
82560;SDS011;72228;51.208;10.468;2024-01-30T13:40:07;12.10;;;5.38;;
82560;SDS011;72228;51.208;10.468;2024-01-30T13:42:34;15.30;;;9.02;;
82560;SDS011;72228;51.208;10.468;2024-01-30T13:45:00;14.75;;;6.78;;
82560;SDS011;72228;51.208;10.468;2024-01-30T13:47:26;10.27;;;4.90;;
82560;SDS011;72228;51.208;10.468;2024-01-30T13:49:52;10.88;;;5.72;;
82560;SDS011;72228;51.208;10.468;2024-01-30T13:52:18;13.70;;;6.88;;
82560;SDS011;72228;51.208;10.468;2024-01-30T13:54:44;12.13;;;5.85;;
82560;SDS011;72228;51.208;10.468;2024-01-30T13:57:10;10.73;;;6.30;;
82560;SDS011;72228;51.208;10.468;2024-01-30T13:59:37;11.75;;;5.60;;
82560;SDS011;72228;51.208;10.468;2024-01-30T14:02:03;12.95;;;6.40;;
82560;SDS011;72228;51.208;10.468;2024-01-30T14:04:30;14.23;;;5.85;;
82560;SDS011;72228;51.208;10.468;2024-01-30T14:06:56;11.60;;;6.38;;
82560;SDS011;72228;51.208;10.468;2024-01-30T14:09:22;15.10;;;6.72;;
82560;SDS011;72228;51.208;10.468;2024-01-30T14:11:48;9.43;;;5.40;;
82560;SDS011;72228;51.208;10.468;2024-01-30T14:14:14;8.93;;;5.15;;
82560;SDS011;72228;51.208;10.468;2024-01-30T14:16:39;8.35;;;4.35;;
82560;SDS011;72228;51.208;10.468;2024-01-30T14:19:06;10.07;;;4.90;;
82560;SDS011;72228;51.208;10.468;2024-01-30T14:21:32;10.80;;;4.85;;
82560;SDS011;72228;51.208;10.468;2024-01-30T14:23:57;10.85;;;5.57;;
82560;SDS011;72228;51.208;10.468;2024-01-30T14:26:23;18.55;;;6.82;;
82560;SDS011;72228;51.208;10.468;2024-01-30T14:28:49;30.02;;;11.13;;
82560;SDS011;72228;51.208;10.468;2024-01-30T14:31:15;14.40;;;7.70;;
82560;SDS011;72228;51.208;10.468;2024-01-30T14:33:44;14.40;;;6.40;;
82560;SDS011;72228;51.208;10.468;2024-01-30T14:36:09;13.18;;;6.32;;
82560;SDS011;72228;51.208;10.468;2024-01-30T14:38:35;11.02;;;5.90;;
82560;SDS011;72228;51.208;10.468;2024-01-30T14:41:01;11.88;;;6.72;;